sensor_id;sensor_type;location;lat;lon;timestamp;pressure;altitude;pressure_sealevel;temperature;humidity
61359;BME280;47228;46.762;23.598;2023-02-13T00:01:11;99133.69;;;-3.62;72.42
61359;BME280;47228;46.762;23.598;2023-02-13T00:03:39;99130.48;;;-3.64;72.57
61359;BME280;47228;46.762;23.598;2023-02-13T00:06:08;99131.75;;;-3.65;72.63
61359;BME280;47228;46.762;23.598;2023-02-13T00:08:36;99134.21;;;-3.66;72.49
61359;BME280;47228;46.762;23.598;2023-02-13T00:11:04;99130.95;;;-3.67;72.21
61359;BME280;47228;46.762;23.598;2023-02-13T00:13:33;99127.98;;;-3.66;72.53
61359;BME280;47228;46.762;23.598;2023-02-13T00:16:05;99122.75;;;-3.65;72.28
61359;BME280;47228;46.762;23.598;2023-02-13T00:18:35;99126.86;;;-3.65;72.17
61359;BME280;47228;46.762;23.598;2023-02-13T00:21:09;99124.52;;;-3.66;72.06
61359;BME280;47228;46.762;23.598;2023-02-13T00:23:38;99128.22;;;-3.68;71.97
61359;BME280;47228;46.762;23.598;2023-02-13T00:26:10;99127.50;;;-3.71;71.45
61359;BME280;47228;46.762;23.598;2023-02-13T00:28:38;99127.02;;;-3.76;71.38
61359;BME280;47228;46.762;23.598;2023-02-13T00:31:10;99123.59;;;-3.80;71.52
61359;BME280;47228;46.762;23.598;2023-02-13T00:33:39;99123.31;;;-3.82;71.70
61359;BME280;47228;46.762;23.598;2023-02-13T00:36:09;99123.27;;;-3.85;71.54
61359;BME280;47228;46.762;23.598;2023-02-13T00:38:39;99124.02;;;-3.87;71.50
61359;BME280;47228;46.762;23.598;2023-02-13T00:41:09;99129.41;;;-3.87;71.51
61359;BME280;47228;46.762;23.598;2023-02-13T00:43:37;99124.80;;;-3.89;71.67
61359;BME280;47228;46.762;23.598;2023-02-13T00:46:07;99121.75;;;-3.90;71.75
61359;BME280;47228;46.762;23.598;2023-02-13T00:48:35;99118.00;;;-3.91;71.92
61359;BME280;47228;46.762;23.598;2023-02-13T00:51:04;99116.04;;;-3.93;72.14
61359;BME280;47228;46.762;23.598;2023-02-13T00:53:37;99107.14;;;-3.97;72.17
61359;BME280;47228;46.762;23.598;2023-02-13T00:56:06;99104.31;;;-3.99;72.50
61359;BME280;47228;46.762;23.598;2023-02-13T00:58:34;99104.36;;;-4.00;72.95
61359;BME280;47228;46.762;23.598;2023-02-13T01:01:02;99100.08;;;-4.01;73.42
61359;BME280;47228;46.762;23.598;2023-02-13T01:03:30;99096.09;;;-4.01;73.59
61359;BME280;47228;46.762;23.598;2023-02-13T01:05:58;99094.13;;;-3.99;73.97
61359;BME280;47228;46.762;23.598;2023-02-13T01:08:26;99093.40;;;-3.99;74.08
61359;BME280;47228;46.762;23.598;2023-02-13T01:10:57;99096.68;;;-3.98;74.22
61359;BME280;47228;46.762;23.598;2023-02-13T01:13:26;99091.73;;;-3.96;74.36
61359;BME280;47228;46.762;23.598;2023-02-13T01:15:54;99090.09;;;-3.94;74.31
61359;BME280;47228;46.762;23.598;2023-02-13T01:18:22;99091.23;;;-3.93;74.30
61359;BME280;47228;46.762;23.598;2023-02-13T01:20:58;99093.65;;;-3.93;74.33
61359;BME280;47228;46.762;23.598;2023-02-13T01:23:32;99095.14;;;-3.95;73.71
61359;BME280;47228;46.762;23.598;2023-02-13T01:26:02;99089.33;;;-4.01;73.19
61359;BME280;47228;46.762;23.598;2023-02-13T01:28:31;99094.28;;;-4.07;72.86
61359;BME280;47228;46.762;23.598;2023-02-13T01:30:59;99093.09;;;-4.16;72.81
61359;BME280;47228;46.762;23.598;2023-02-13T01:33:28;99092.53;;;-4.23;73.07
61359;BME280;47228;46.762;23.598;2023-02-13T01:35:57;99088.64;;;-4.29;73.11
61359;BME280;47228;46.762;23.598;2023-02-13T01:38:25;99088.26;;;-4.32;73.12
61359;BME280;47228;46.762;23.598;2023-02-13T01:40:53;99089.23;;;-4.35;73.09
61359;BME280;47228;46.762;23.598;2023-02-13T01:43:22;99091.27;;;-4.38;72.87
61359;BME280;47228;46.762;23.598;2023-02-13T01:45:54;99095.35;;;-4.41;72.94
61359;BME280;47228;46.762;23.598;2023-02-13T01:48:25;99095.29;;;-4.47;72.63
61359;BME280;47228;46.762;23.598;2023-02-13T01:50:59;99090.21;;;-4.55;72.63
61359;BME280;47228;46.762;23.598;2023-02-13T01:56:09;99096.43;;;-4.63;73.01
61359;BME280;47228;46.762;23.598;2023-02-13T01:58:41;99095.98;;;-4.64;73.38
61359;BME280;47228;46.762;23.598;2023-02-13T02:01:12;99098.05;;;-4.64;73.46
61359;BME280;47228;46.762;23.598;2023-02-13T02:03:42;99094.80;;;-4.65;73.55
61359;BME280;47228;46.762;23.598;2023-02-13T02:06:40;99099.16;;;-4.66;73.56
61359;BME280;47228;46.762;23.598;2023-02-13T02:09:14;99098.21;;;-4.68;73.43
61359;BME280;47228;46.762;23.598;2023-02-13T02:12:14;99095.14;;;-4.69;73.35
61359;BME280;47228;46.762;23.598;2023-02-13T02:14:44;99094.86;;;-4.71;73.32
61359;BME280;47228;46.762;23.598;2023-02-13T02:17:13;99100.58;;;-4.71;73.43
61359;BME280;47228;46.762;23.598;2023-02-13T02:34:23;99109.02;;;-4.92;71.90
61359;BME280;47228;46.762;23.598;2023-02-13T02:37:15;99117.45;;;-4.95;71.57
61359;BME280;47228;46.762;23.598;2023-02-13T02:40:09;99119.55;;;-4.96;71.43
61359;BME280;47228;46.762;23.598;2023-02-13T02:43:07;99117.00;;;-4.97;71.56
61359;BME280;47228;46.762;23.598;2023-02-13T02:49:03;99116.90;;;-4.95;71.68
61359;BME280;47228;46.762;23.598;2023-02-13T02:52:17;99113.52;;;-4.92;71.59
61359;BME280;47228;46.762;23.598;2023-02-13T02:54:55;99111.55;;;-4.90;71.31
61359;BME280;47228;46.762;23.598;2023-02-13T02:57:39;99108.77;;;-4.90;71.03
61359;BME280;47228;46.762;23.598;2023-02-13T03:00:28;99104.42;;;-4.89;71.14
61359;BME280;47228;46.762;23.598;2023-02-13T03:03:22;99112.17;;;-4.88;71.27
61359;BME280;47228;46.762;23.598;2023-02-13T03:06:18;99124.40;;;-4.87;71.30
61359;BME280;47228;46.762;23.598;2023-02-13T03:08:58;99128.05;;;-4.88;71.55
61359;BME280;47228;46.762;23.598;2023-02-13T03:11:52;99128.84;;;-4.91;71.85
61359;BME280;47228;46.762;23.598;2023-02-13T03:14:41;99123.10;;;-4.94;72.18
61359;BME280;47228;46.762;23.598;2023-02-13T03:17:11;99124.25;;;-4.97;72.01
61359;BME280;47228;46.762;23.598;2023-02-13T03:20:05;99130.23;;;-5.00;72.23
61359;BME280;47228;46.762;23.598;2023-02-13T03:23:13;99132.02;;;-5.06;72.03
61359;BME280;47228;46.762;23.598;2023-02-13T03:25:46;99128.41;;;-5.11;72.32
61359;BME280;47228;46.762;23.598;2023-02-13T03:31:32;99134.34;;;-5.17;72.56
61359;BME280;47228;46.762;23.598;2023-02-13T03:34:09;99134.70;;;-5.22;72.63
61359;BME280;47228;46.762;23.598;2023-02-13T03:37:01;99132.27;;;-5.26;72.55
61359;BME280;47228;46.762;23.598;2023-02-13T03:40:12;99135.41;;;-5.31;72.72
61359;BME280;47228;46.762;23.598;2023-02-13T03:42:47;99145.13;;;-5.37;72.68
61359;BME280;47228;46.762;23.598;2023-02-13T03:45:27;99151.41;;;-5.44;72.83
61359;BME280;47228;46.762;23.598;2023-02-13T03:48:18;99155.98;;;-5.46;73.07
61359;BME280;47228;46.762;23.598;2023-02-13T03:51:07;99151.25;;;-5.48;73.26
61359;BME280;47228;46.762;23.598;2023-02-13T03:53:38;99150.10;;;-5.50;73.32
61359;BME280;47228;46.762;23.598;2023-02-13T03:56:10;99148.61;;;-5.52;73.56
61359;BME280;47228;46.762;23.598;2023-02-13T03:59:00;99148.83;;;-5.53;73.69
61359;BME280;47228;46.762;23.598;2023-02-13T04:01:53;99154.28;;;-5.56;73.42
61359;BME280;47228;46.762;23.598;2023-02-13T04:04:38;99153.36;;;-5.59;73.49
61359;BME280;47228;46.762;23.598;2023-02-13T04:07:12;99155.23;;;-5.63;73.49
61359;BME280;47228;46.762;23.598;2023-02-13T04:10:05;99155.23;;;-5.68;73.58
61359;BME280;47228;46.762;23.598;2023-02-13T04:15:42;99165.29;;;-5.79;73.57
61359;BME280;47228;46.762;23.598;2023-02-13T04:18:19;99163.36;;;-5.83;73.37
61359;BME280;47228;46.762;23.598;2023-02-13T04:20:48;99154.33;;;-5.87;73.49
61359;BME280;47228;46.762;23.598;2023-02-13T04:23:18;99155.66;;;-5.90;73.45
61359;BME280;47228;46.762;23.598;2023-02-13T04:25:48;99150.88;;;-5.96;73.58
61359;BME280;47228;46.762;23.598;2023-02-13T04:28:17;99153.35;;;-5.98;73.83
61359;BME280;47228;46.762;23.598;2023-02-13T04:30:45;99157.71;;;-6.00;73.85
61359;BME280;47228;46.762;23.598;2023-02-13T04:33:14;99160.94;;;-6.03;73.79
61359;BME280;47228;46.762;23.598;2023-02-13T04:35:42;99166.23;;;-6.06;73.86
61359;BME280;47228;46.762;23.598;2023-02-13T04:38:10;99169.30;;;-6.10;73.62
61359;BME280;47228;46.762;23.598;2023-02-13T04:40:38;99170.02;;;-6.15;73.61
61359;BME280;47228;46.762;23.598;2023-02-13T04:43:06;99170.52;;;-6.20;73.84
61359;BME280;47228;46.762;23.598;2023-02-13T04:45:34;99177.23;;;-6.25;73.92
61359;BME280;47228;46.762;23.598;2023-02-13T04:48:02;99181.30;;;-6.28;73.99
61359;BME280;47228;46.762;23.598;2023-02-13T04:50:30;99182.29;;;-6.31;74.14
61359;BME280;47228;46.762;23.598;2023-02-13T04:52:58;99183.52;;;-6.33;74.22
61359;BME280;47228;46.762;23.598;2023-02-13T04:55:27;99180.09;;;-6.33;74.16
61359;BME280;47228;46.762;23.598;2023-02-13T04:57:55;99179.11;;;-6.35;74.18
61359;BME280;47228;46.762;23.598;2023-02-13T05:00:26;99179.71;;;-6.38;74.32
61359;BME280;47228;46.762;23.598;2023-02-13T05:03:03;99183.86;;;-6.38;74.61
61359;BME280;47228;46.762;23.598;2023-02-13T05:05:31;99182.90;;;-6.34;74.91
61359;BME280;47228;46.762;23.598;2023-02-13T05:07:59;99183.11;;;-6.30;74.90
61359;BME280;47228;46.762;23.598;2023-02-13T05:10:28;99188.15;;;-6.27;74.86
61359;BME280;47228;46.762;23.598;2023-02-13T05:12:56;99191.23;;;-6.26;74.73
61359;BME280;47228;46.762;23.598;2023-02-13T05:15:25;99197.45;;;-6.26;74.72
61359;BME280;47228;46.762;23.598;2023-02-13T05:17:53;99200.61;;;-6.28;74.58
61359;BME280;47228;46.762;23.598;2023-02-13T05:20:21;99196.32;;;-6.34;74.48
61359;BME280;47228;46.762;23.598;2023-02-13T05:22:51;99201.84;;;-6.39;74.50
61359;BME280;47228;46.762;23.598;2023-02-13T05:25:40;99205.96;;;-6.44;74.53
61359;BME280;47228;46.762;23.598;2023-02-13T05:28:08;99204.77;;;-6.50;74.39
61359;BME280;47228;46.762;23.598;2023-02-13T05:30:56;99203.55;;;-6.55;74.32
61359;BME280;47228;46.762;23.598;2023-02-13T05:33:25;99204.67;;;-6.58;74.57
61359;BME280;47228;46.762;23.598;2023-02-13T05:35:54;99206.39;;;-6.58;75.06
61359;BME280;47228;46.762;23.598;2023-02-13T05:38:22;99207.89;;;-6.56;75.18
61359;BME280;47228;46.762;23.598;2023-02-13T05:40:50;99205.77;;;-6.55;75.09
61359;BME280;47228;46.762;23.598;2023-02-13T05:43:18;99202.95;;;-6.53;75.26
61359;BME280;47228;46.762;23.598;2023-02-13T05:45:46;99203.30;;;-6.53;75.11
61359;BME280;47228;46.762;23.598;2023-02-13T05:48:14;99203.96;;;-6.52;75.38
61359;BME280;47228;46.762;23.598;2023-02-13T05:50:45;99199.98;;;-6.51;75.32
61359;BME280;47228;46.762;23.598;2023-02-13T05:53:14;99197.90;;;-6.51;75.40
61359;BME280;47228;46.762;23.598;2023-02-13T05:55:43;99200.13;;;-6.50;75.46
61359;BME280;47228;46.762;23.598;2023-02-13T05:58:11;99202.20;;;-6.50;75.36
61359;BME280;47228;46.762;23.598;2023-02-13T06:00:38;99195.46;;;-6.50;75.62
61359;BME280;47228;46.762;23.598;2023-02-13T06:03:06;99193.48;;;-6.48;75.62
61359;BME280;47228;46.762;23.598;2023-02-13T06:05:35;99193.52;;;-6.49;75.39
61359;BME280;47228;46.762;23.598;2023-02-13T06:08:03;99197.58;;;-6.51;75.34
61359;BME280;47228;46.762;23.598;2023-02-13T06:10:31;99199.70;;;-6.53;75.48
61359;BME280;47228;46.762;23.598;2023-02-13T06:12:59;99201.30;;;-6.55;75.51
61359;BME280;47228;46.762;23.598;2023-02-13T06:15:27;99199.43;;;-6.55;75.47
61359;BME280;47228;46.762;23.598;2023-02-13T06:17:55;99196.48;;;-6.55;75.81
61359;BME280;47228;46.762;23.598;2023-02-13T06:20:23;99201.04;;;-6.52;76.05
61359;BME280;47228;46.762;23.598;2023-02-13T06:22:52;99200.23;;;-6.48;76.18
61359;BME280;47228;46.762;23.598;2023-02-13T06:25:20;99197.97;;;-6.42;76.08
61359;BME280;47228;46.762;23.598;2023-02-13T06:27:49;99196.20;;;-6.35;76.02
61359;BME280;47228;46.762;23.598;2023-02-13T06:30:17;99190.77;;;-6.27;75.84
61359;BME280;47228;46.762;23.598;2023-02-13T06:32:47;99188.70;;;-6.22;75.46
61359;BME280;47228;46.762;23.598;2023-02-13T06:35:15;99186.86;;;-6.19;75.28
61359;BME280;47228;46.762;23.598;2023-02-13T06:37:44;99183.84;;;-6.16;75.14
61359;BME280;47228;46.762;23.598;2023-02-13T06:40:13;99182.23;;;-6.15;75.01
61359;BME280;47228;46.762;23.598;2023-02-13T06:42:42;99182.45;;;-6.11;75.33
61359;BME280;47228;46.762;23.598;2023-02-13T06:45:12;99173.77;;;-6.04;75.54
61359;BME280;47228;46.762;23.598;2023-02-13T06:47:42;99173.75;;;-5.99;75.82
61359;BME280;47228;46.762;23.598;2023-02-13T06:50:11;99174.22;;;-5.93;75.82
61359;BME280;47228;46.762;23.598;2023-02-13T06:52:50;99174.66;;;-5.86;75.74
61359;BME280;47228;46.762;23.598;2023-02-13T06:55:19;99172.84;;;-5.78;75.56
61359;BME280;47228;46.762;23.598;2023-02-13T06:57:47;99175.45;;;-5.69;75.51
61359;BME280;47228;46.762;23.598;2023-02-13T07:00:17;99174.58;;;-5.59;75.47
61359;BME280;47228;46.762;23.598;2023-02-13T07:02:47;99172.96;;;-5.48;75.42
61359;BME280;47228;46.762;23.598;2023-02-13T07:05:16;99173.74;;;-5.36;75.50
61359;BME280;47228;46.762;23.598;2023-02-13T07:07:44;99172.27;;;-5.24;75.43
61359;BME280;47228;46.762;23.598;2023-02-13T07:10:13;99173.23;;;-5.13;75.25
61359;BME280;47228;46.762;23.598;2023-02-13T07:12:41;99168.06;;;-5.04;75.30
61359;BME280;47228;46.762;23.598;2023-02-13T07:15:11;99166.34;;;-4.95;75.02
61359;BME280;47228;46.762;23.598;2023-02-13T07:17:39;99168.04;;;-4.85;74.75
61359;BME280;47228;46.762;23.598;2023-02-13T07:20:07;99167.85;;;-4.76;74.51
61359;BME280;47228;46.762;23.598;2023-02-13T07:22:36;99175.77;;;-4.66;74.07
61359;BME280;47228;46.762;23.598;2023-02-13T07:25:04;99178.09;;;-4.60;73.91
61359;BME280;47228;46.762;23.598;2023-02-13T07:27:32;99171.88;;;-4.51;74.21
61359;BME280;47228;46.762;23.598;2023-02-13T07:30:00;99170.79;;;-4.41;74.22
61359;BME280;47228;46.762;23.598;2023-02-13T07:32:28;99170.02;;;-4.31;73.85
61359;BME280;47228;46.762;23.598;2023-02-13T07:34:56;99172.42;;;-4.22;72.84
61359;BME280;47228;46.762;23.598;2023-02-13T07:37:30;99173.06;;;-4.12;72.16
61359;BME280;47228;46.762;23.598;2023-02-13T07:39:59;99173.23;;;-4.04;71.61
61359;BME280;47228;46.762;23.598;2023-02-13T07:42:27;99167.11;;;-3.94;70.77
61359;BME280;47228;46.762;23.598;2023-02-13T07:44:55;99167.68;;;-3.83;70.44
61359;BME280;47228;46.762;23.598;2023-02-13T07:47:23;99165.63;;;-3.72;70.06
61359;BME280;47228;46.762;23.598;2023-02-13T07:49:51;99165.73;;;-3.62;69.02
61359;BME280;47228;46.762;23.598;2023-02-13T07:52:19;99169.35;;;-3.54;68.45
61359;BME280;47228;46.762;23.598;2023-02-13T07:54:47;99172.37;;;-3.44;68.28
61359;BME280;47228;46.762;23.598;2023-02-13T07:57:18;99169.09;;;-3.32;68.28
61359;BME280;47228;46.762;23.598;2023-02-13T07:59:46;99168.45;;;-3.18;68.17
61359;BME280;47228;46.762;23.598;2023-02-13T08:02:15;99168.92;;;-3.06;67.33
61359;BME280;47228;46.762;23.598;2023-02-13T08:04:43;99170.30;;;-2.95;67.42
61359;BME280;47228;46.762;23.598;2023-02-13T08:07:15;99174.61;;;-2.79;66.78
61359;BME280;47228;46.762;23.598;2023-02-13T08:09:44;99171.73;;;-2.66;66.36
61359;BME280;47228;46.762;23.598;2023-02-13T08:12:33;99171.20;;;-2.51;66.04
61359;BME280;47228;46.762;23.598;2023-02-13T08:15:02;99171.02;;;-2.37;65.80
61359;BME280;47228;46.762;23.598;2023-02-13T08:17:31;99166.20;;;-2.23;64.92
61359;BME280;47228;46.762;23.598;2023-02-13T08:19:59;99168.40;;;-2.11;64.26
61359;BME280;47228;46.762;23.598;2023-02-13T08:22:27;99167.06;;;-2.02;63.49
61359;BME280;47228;46.762;23.598;2023-02-13T08:24:55;99158.71;;;-1.91;64.01
61359;BME280;47228;46.762;23.598;2023-02-13T08:27:23;99156.66;;;-1.75;64.07
61359;BME280;47228;46.762;23.598;2023-02-13T08:29:51;99158.61;;;-1.59;64.02
61359;BME280;47228;46.762;23.598;2023-02-13T08:32:19;99159.62;;;-1.42;63.76
61359;BME280;47228;46.762;23.598;2023-02-13T08:34:47;99155.06;;;-1.28;63.61
61359;BME280;47228;46.762;23.598;2023-02-13T08:37:16;99153.15;;;-1.12;62.96
61359;BME280;47228;46.762;23.598;2023-02-13T08:39:43;99157.93;;;-0.97;62.22
61359;BME280;47228;46.762;23.598;2023-02-13T08:42:11;99157.71;;;-0.84;62.04
61359;BME280;47228;46.762;23.598;2023-02-13T08:44:43;99153.36;;;-0.71;61.49
61359;BME280;47228;46.762;23.598;2023-02-13T08:47:11;99152.67;;;-0.59;60.92
61359;BME280;47228;46.762;23.598;2023-02-13T08:49:39;99152.13;;;-0.46;61.07
61359;BME280;47228;46.762;23.598;2023-02-13T08:52:08;99152.25;;;-0.33;61.24
61359;BME280;47228;46.762;23.598;2023-02-13T08:54:36;99157.73;;;-0.20;61.05
61359;BME280;47228;46.762;23.598;2023-02-13T08:57:04;99161.13;;;-0.09;60.64
61359;BME280;47228;46.762;23.598;2023-02-13T08:59:31;99161.81;;;0.03;60.55
61359;BME280;47228;46.762;23.598;2023-02-13T09:02:00;99162.91;;;0.15;60.17
61359;BME280;47228;46.762;23.598;2023-02-13T09:04:28;99159.90;;;0.24;59.84
61359;BME280;47228;46.762;23.598;2023-02-13T09:06:56;99160.44;;;0.32;59.86
61359;BME280;47228;46.762;23.598;2023-02-13T09:09:24;99154.14;;;0.42;59.78
61359;BME280;47228;46.762;23.598;2023-02-13T09:11:51;99157.85;;;0.50;59.24
61359;BME280;47228;46.762;23.598;2023-02-13T09:14:25;99160.84;;;0.58;59.05
61359;BME280;47228;46.762;23.598;2023-02-13T09:16:53;99159.30;;;0.66;58.78
61359;BME280;47228;46.762;23.598;2023-02-13T09:19:21;99158.85;;;0.73;58.50
61359;BME280;47228;46.762;23.598;2023-02-13T09:21:49;99162.99;;;0.80;58.38
61359;BME280;47228;46.762;23.598;2023-02-13T09:24:17;99165.02;;;0.86;58.24
61359;BME280;47228;46.762;23.598;2023-02-13T09:26:45;99161.54;;;0.92;57.85
61359;BME280;47228;46.762;23.598;2023-02-13T09:29:13;99156.83;;;0.95;57.31
61359;BME280;47228;46.762;23.598;2023-02-13T09:31:41;99155.75;;;0.95;57.00
61359;BME280;47228;46.762;23.598;2023-02-13T09:34:12;99150.13;;;0.98;57.65
61359;BME280;47228;46.762;23.598;2023-02-13T09:36:40;99147.13;;;1.05;57.80
61359;BME280;47228;46.762;23.598;2023-02-13T09:39:08;99146.36;;;1.11;57.41
61359;BME280;47228;46.762;23.598;2023-02-13T09:41:39;99141.23;;;1.12;57.30
61359;BME280;47228;46.762;23.598;2023-02-13T09:44:15;99139.88;;;1.14;57.59
61359;BME280;47228;46.762;23.598;2023-02-13T09:47:12;99138.73;;;1.19;57.07
61359;BME280;47228;46.762;23.598;2023-02-13T09:49:48;99136.91;;;1.23;56.98
61359;BME280;47228;46.762;23.598;2023-02-13T09:52:19;99130.80;;;1.28;56.83
61359;BME280;47228;46.762;23.598;2023-02-13T09:54:47;99124.27;;;1.35;57.09
61359;BME280;47228;46.762;23.598;2023-02-13T09:57:21;99119.98;;;1.42;57.20
61359;BME280;47228;46.762;23.598;2023-02-13T10:11:16;99117.34;;;1.87;56.31
61359;BME280;47228;46.762;23.598;2023-02-13T10:16:44;99102.55;;;2.05;55.91
61359;BME280;47228;46.762;23.598;2023-02-13T10:19:41;99099.71;;;2.13;55.85
61359;BME280;47228;46.762;23.598;2023-02-13T10:22:15;99095.71;;;2.26;55.75
61359;BME280;47228;46.762;23.598;2023-02-13T10:24:49;99092.48;;;2.37;55.14
61359;BME280;47228;46.762;23.598;2023-02-13T10:27:34;99090.94;;;2.44;54.24
61359;BME280;47228;46.762;23.598;2023-02-13T10:33:03;99090.11;;;2.61;55.22
61359;BME280;47228;46.762;23.598;2023-02-13T10:38:32;99087.84;;;2.74;55.20
61359;BME280;47228;46.762;23.598;2023-02-13T10:47:05;99071.33;;;2.87;55.05
61359;BME280;47228;46.762;23.598;2023-02-13T10:58:17;99062.31;;;2.90;54.95
61359;BME280;47228;46.762;23.598;2023-02-13T11:00:48;99061.96;;;2.85;55.22
61359;BME280;47228;46.762;23.598;2023-02-13T11:03:21;99056.34;;;2.83;55.37
61359;BME280;47228;46.762;23.598;2023-02-13T11:05:50;99059.44;;;2.82;55.62
61359;BME280;47228;46.762;23.598;2023-02-13T11:08:25;99056.48;;;2.79;55.67
61359;BME280;47228;46.762;23.598;2023-02-13T11:10:56;99056.13;;;2.77;55.65
61359;BME280;47228;46.762;23.598;2023-02-13T11:13:26;99058.86;;;2.75;55.82
61359;BME280;47228;46.762;23.598;2023-02-13T11:18:48;99059.73;;;2.78;56.18
61359;BME280;47228;46.762;23.598;2023-02-13T11:21:21;99056.55;;;2.80;56.48
61359;BME280;47228;46.762;23.598;2023-02-13T11:23:52;99059.09;;;2.84;56.43
61359;BME280;47228;46.762;23.598;2023-02-13T11:26:28;99060.48;;;2.87;56.30
61359;BME280;47228;46.762;23.598;2023-02-13T11:29:05;99057.52;;;2.89;56.18
61359;BME280;47228;46.762;23.598;2023-02-13T11:31:42;99055.14;;;2.90;55.99
61359;BME280;47228;46.762;23.598;2023-02-13T11:34:26;99054.44;;;2.93;56.34
61359;BME280;47228;46.762;23.598;2023-02-13T11:39:43;99044.27;;;3.07;56.49
61359;BME280;47228;46.762;23.598;2023-02-13T11:42:17;99041.33;;;3.14;56.85
61359;BME280;47228;46.762;23.598;2023-02-13T11:44:52;99036.67;;;3.23;56.73
61359;BME280;47228;46.762;23.598;2023-02-13T11:47:40;99029.77;;;3.27;56.06
61359;BME280;47228;46.762;23.598;2023-02-13T11:50:28;99028.55;;;3.27;56.15
61359;BME280;47228;46.762;23.598;2023-02-13T11:55:35;99025.91;;;3.33;56.80
61359;BME280;47228;46.762;23.598;2023-02-13T12:00:39;99018.91;;;3.43;56.63
61359;BME280;47228;46.762;23.598;2023-02-13T12:06:03;99021.14;;;3.46;56.27
61359;BME280;47228;46.762;23.598;2023-02-13T12:08:35;99017.71;;;3.44;56.36
61359;BME280;47228;46.762;23.598;2023-02-13T12:11:16;99016.52;;;3.44;56.63
61359;BME280;47228;46.762;23.598;2023-02-13T12:13:48;99018.00;;;3.41;56.45
61359;BME280;47228;46.762;23.598;2023-02-13T12:18:52;99016.14;;;3.31;56.95
61359;BME280;47228;46.762;23.598;2023-02-13T12:26:45;99019.66;;;3.19;57.23
61359;BME280;47228;46.762;23.598;2023-02-13T12:29:26;99018.82;;;3.16;57.51
61359;BME280;47228;46.762;23.598;2023-02-13T12:40:29;99010.27;;;3.03;58.31
61359;BME280;47228;46.762;23.598;2023-02-13T12:45:51;99006.57;;;3.13;58.49
61359;BME280;47228;46.762;23.598;2023-02-13T12:51:14;99006.19;;;3.21;58.18
61359;BME280;47228;46.762;23.598;2023-02-13T12:56:38;99004.14;;;3.27;58.19
61359;BME280;47228;46.762;23.598;2023-02-13T12:59:49;99002.89;;;3.30;58.16
61359;BME280;47228;46.762;23.598;2023-02-13T13:02:26;99002.77;;;3.31;58.05
61359;BME280;47228;46.762;23.598;2023-02-13T13:05:13;99002.70;;;3.32;57.76
61359;BME280;47228;46.762;23.598;2023-02-13T13:07:51;99002.02;;;3.30;57.79
61359;BME280;47228;46.762;23.598;2023-02-13T13:21:15;98992.38;;;3.32;57.99
61359;BME280;47228;46.762;23.598;2023-02-13T13:27:10;98987.89;;;3.31;58.12
61359;BME280;47228;46.762;23.598;2023-02-13T13:29:57;98987.36;;;3.34;58.31
61359;BME280;47228;46.762;23.598;2023-02-13T13:32:27;98989.42;;;3.37;58.31
61359;BME280;47228;46.762;23.598;2023-02-13T13:34:57;98988.98;;;3.38;58.11
61359;BME280;47228;46.762;23.598;2023-02-13T13:43:02;98973.34;;;3.45;58.55
61359;BME280;47228;46.762;23.598;2023-02-13T13:48:18;98970.98;;;3.51;58.40
61359;BME280;47228;46.762;23.598;2023-02-13T13:50:48;98970.48;;;3.53;58.30
61359;BME280;47228;46.762;23.598;2023-02-13T13:53:18;98969.23;;;3.54;58.32
61359;BME280;47228;46.762;23.598;2023-02-13T13:58:25;98969.58;;;3.49;58.37
61359;BME280;47228;46.762;23.598;2023-02-13T14:03:43;98965.52;;;3.42;58.40
61359;BME280;47228;46.762;23.598;2023-02-13T14:06:14;98969.77;;;3.40;58.68
61359;BME280;47228;46.762;23.598;2023-02-13T14:13:57;98972.33;;;3.33;58.46
61359;BME280;47228;46.762;23.598;2023-02-13T14:16:41;98966.90;;;3.31;58.42
61359;BME280;47228;46.762;23.598;2023-02-13T14:19:29;98958.68;;;3.29;58.56
61359;BME280;47228;46.762;23.598;2023-02-13T14:25:05;98949.95;;;3.26;58.72
61359;BME280;47228;46.762;23.598;2023-02-13T14:27:36;98955.14;;;3.24;58.67
61359;BME280;47228;46.762;23.598;2023-02-13T14:30:25;98952.09;;;3.23;58.79
61359;BME280;47228;46.762;23.598;2023-02-13T14:32:54;98946.39;;;3.22;59.06
61359;BME280;47228;46.762;23.598;2023-02-13T14:35:25;98939.96;;;3.21;59.26
61359;BME280;47228;46.762;23.598;2023-02-13T14:37:57;98936.83;;;3.21;59.28
61359;BME280;47228;46.762;23.598;2023-02-13T14:40:43;98938.35;;;3.19;59.01
61359;BME280;47228;46.762;23.598;2023-02-13T14:43:32;98940.72;;;3.18;58.87
61359;BME280;47228;46.762;23.598;2023-02-13T14:49:27;98946.38;;;3.10;58.85
61359;BME280;47228;46.762;23.598;2023-02-13T14:52:14;98945.98;;;3.06;58.91
61359;BME280;47228;46.762;23.598;2023-02-13T14:54:48;98949.33;;;3.04;59.36
61359;BME280;47228;46.762;23.598;2023-02-13T14:57:22;98949.73;;;3.03;59.48
61359;BME280;47228;46.762;23.598;2023-02-13T14:59:55;98947.11;;;3.03;59.70
61359;BME280;47228;46.762;23.598;2023-02-13T15:02:27;98951.46;;;3.01;59.83
61359;BME280;47228;46.762;23.598;2023-02-13T15:05:14;98950.23;;;2.99;59.64
61359;BME280;47228;46.762;23.598;2023-02-13T15:07:50;98949.19;;;2.96;59.61
61359;BME280;47228;46.762;23.598;2023-02-13T15:13:23;98954.79;;;2.94;59.93
61359;BME280;47228;46.762;23.598;2023-02-13T15:16:11;98951.11;;;2.92;59.94
61359;BME280;47228;46.762;23.598;2023-02-13T15:21:20;98946.42;;;2.84;60.25
61359;BME280;47228;46.762;23.598;2023-02-13T15:23:51;98950.11;;;2.79;60.77
61359;BME280;47228;46.762;23.598;2023-02-13T15:26:22;98949.16;;;2.73;60.88
61359;BME280;47228;46.762;23.598;2023-02-13T15:29:01;98945.44;;;2.66;61.05
61359;BME280;47228;46.762;23.598;2023-02-13T15:31:32;98949.39;;;2.60;61.17
61359;BME280;47228;46.762;23.598;2023-02-13T15:34:01;98952.98;;;2.54;61.31
61359;BME280;47228;46.762;23.598;2023-02-13T15:36:35;98954.25;;;2.48;61.59
61359;BME280;47228;46.762;23.598;2023-02-13T15:39:06;98953.88;;;2.44;61.69
61359;BME280;47228;46.762;23.598;2023-02-13T15:41:44;98956.93;;;2.38;61.82
61359;BME280;47228;46.762;23.598;2023-02-13T15:46:59;98957.70;;;2.25;62.32
61359;BME280;47228;46.762;23.598;2023-02-13T15:49:36;98956.36;;;2.18;62.88
61359;BME280;47228;46.762;23.598;2023-02-13T15:52:08;98954.48;;;2.13;63.11